Time;durP1;ratioP1;P1;durP2;ratioP2;P2;SDS_P1;SDS_P2;PMS_P1;PMS_P2;Temp;Humidity;BMP_temperature;BMP_pressure;BME280_temperature;BME280_humidity;BME280_pressure;Samples;Min_cycle;Max_cycle;Signal;HPM_P1;HPM_P2
2023/06/23 00:01:32;;;;;;;5.85;4.68;;;17.40;99.90;;;;;;5013263;28;20038;-94
2023/06/23 00:04:00;;;;;;;4.88;4.20;;;17.40;99.90;;;;;;5001051;28;20041;-96
2023/06/23 00:06:26;;;;;;;5.88;4.38;;;17.40;99.90;;;;;;5021966;28;20428;-95
2023/06/23 00:08:52;;;;;;;5.85;4.40;;;17.40;99.90;;;;;;5021885;28;20088;-96
2023/06/23 00:11:19;;;;;;;6.13;4.55;;;17.40;99.90;;;;;;5012289;28;20496;-94
2023/06/23 00:13:51;;;;;;;5.93;4.32;;;17.40;99.90;;;;;;5038583;28;20656;-96
2023/06/23 00:16:19;;;;;;;6.45;4.43;;;17.40;99.90;;;;;;5013668;28;20037;-95
2023/06/23 00:18:45;;;;;;;6.70;4.35;;;17.40;99.90;;;;;;5019853;28;20033;-95
2023/06/23 00:21:14;;;;;;;5.38;4.40;;;17.40;99.90;;;;;;5020232;28;20045;-95
2023/06/23 00:23:43;;;;;;;5.20;4.32;;;17.40;99.90;;;;;;5011715;28;20091;-96
2023/06/23 00:26:12;;;;;;;6.25;4.57;;;18.10;99.90;;;;;;5002766;28;20401;-96
2023/06/23 00:28:40;;;;;;;4.55;4.15;;;17.40;99.90;;;;;;5004487;28;20075;-94
2023/06/23 00:31:06;;;;;;;6.18;4.22;;;17.40;99.90;;;;;;5021227;28;20037;-96
2023/06/23 00:33:33;;;;;;;4.50;3.38;;;17.40;99.90;;;;;;5003775;28;20045;-96
2023/06/23 00:35:59;;;;;;;8.75;3.80;;;17.40;99.90;;;;;;5021133;28;20044;-96
2023/06/23 00:38:25;;;;;;;4.10;3.58;;;17.40;99.90;;;;;;5013997;28;20049;-95
2023/06/23 00:40:51;;;;;;;5.70;3.60;;;17.30;99.90;;;;;;5015338;28;20508;-94
2023/06/23 00:43:19;;;;;;;4.03;3.40;;;17.40;99.90;;;;;;5004283;28;20037;-95
2023/06/23 00:45:45;;;;;;;5.22;3.70;;;17.30;99.90;;;;;;5017166;28;20091;-95
2023/06/23 00:48:14;;;;;;;4.82;3.22;;;17.30;99.90;;;;;;5004468;28;20044;-96
2023/06/23 00:50:41;;;;;;;6.57;3.33;;;17.40;99.90;;;;;;5018611;28;20077;-95
2023/06/23 00:53:10;;;;;;;4.97;2.85;;;17.30;99.90;;;;;;5018593;28;20041;-95
2023/06/23 00:55:37;;;;;;;5.43;3.58;;;17.30;99.90;;;;;;4988216;28;20041;-95
2023/06/23 00:58:03;;;;;;;;;;;17.30;99.90;;;;;;5020865;28;20102;-95
2023/06/23 01:00:29;;;;;;;4.97;3.08;;;17.30;99.90;;;;;;5020478;28;19923;-95
2023/06/23 01:02:59;;;;;;;4.13;2.70;;;17.20;99.90;;;;;;4999608;28;20132;-96
2023/06/23 01:05:29;;;;;;;4.90;3.10;;;17.20;99.90;;;;;;5015399;28;20041;-95
2023/06/23 01:08:03;;;;;;;3.92;2.70;;;17.20;99.90;;;;;;5017058;28;20049;-96
2023/06/23 01:10:39;;;;;;;3.50;2.58;;;17.20;99.90;;;;;;5016039;28;20127;-96
2023/06/23 01:13:44;;;;;;;3.88;2.92;;;17.20;99.90;;;;;;5018050;28;20400;-96
2023/06/23 01:16:37;;;;;;;7.03;2.95;;;17.20;99.90;;;;;;5036270;28;20033;-96
2023/06/23 01:19:41;;;;;;;4.10;3.15;;;17.20;99.90;;;;;;5035785;28;20041;-95
2023/06/23 01:22:37;;;;;;;4.13;2.92;;;17.20;99.90;;;;;;5037081;28;20143;-94
2023/06/23 01:25:17;;;;;;;3.00;2.20;;;17.20;99.90;;;;;;5036837;28;20048;-94
2023/06/23 01:28:01;;;;;;;4.72;3.10;;;17.20;99.90;;;;;;5016865;28;20128;-96
2023/06/23 01:30:29;;;;;;;4.47;3.00;;;17.20;99.90;;;;;;5015581;28;20534;-96
2023/06/23 01:33:04;;;;;;;3.45;2.13;;;17.20;99.90;;;;;;4996097;28;20037;-96
2023/06/23 01:35:37;;;;;;;5.88;2.55;;;17.20;99.90;;;;;;5011773;28;20048;-95
2023/06/23 01:38:10;;;;;;;6.65;3.58;;;17.20;99.90;;;;;;5019267;28;20060;-96
2023/06/23 01:40:40;;;;;;;4.97;2.97;;;17.20;99.90;;;;;;5017375;28;20060;-95
2023/06/23 01:43:10;;;;;;;4.63;3.25;;;17.10;99.90;;;;;;5014614;28;20040;-95
2023/06/23 01:45:39;;;;;;;3.08;2.30;;;17.10;99.90;;;;;;5016929;28;20048;-95
2023/06/23 01:48:10;;;;;;;4.82;2.60;;;17.10;99.90;;;;;;5016956;28;20481;-95
2023/06/23 01:50:40;;;;;;;2.80;2.42;;;17.10;99.90;;;;;;5018714;28;20123;-96
2023/06/23 01:53:07;;;;;;;3.45;2.47;;;17.10;99.90;;;;;;4981944;28;20052;-94
2023/06/23 01:55:40;;;;;;;4.97;2.85;;;17.10;99.90;;;;;;5019142;28;20052;-94
2023/06/23 01:58:07;;;;;;;3.95;2.42;;;17.00;99.90;;;;;;5014776;28;20037;-95
2023/06/23 02:00:33;;;;;;;;;;;17.10;99.90;;;;;;5013188;28;20384;-95
2023/06/23 02:03:01;;;;;;;4.95;2.78;;;17.10;99.90;;;;;;5031639;28;19916;-96
2023/06/23 02:05:28;;;;;;;4.75;2.47;;;17.10;99.90;;;;;;4993264;28;20045;-95
2023/06/23 02:07:58;;;;;;;5.35;2.42;;;17.20;99.90;;;;;;5019068;28;20549;-95
2023/06/23 02:10:27;;;;;;;5.05;2.80;;;17.20;99.90;;;;;;5014206;28;20048;-94
2023/06/23 02:12:58;;;;;;;3.65;2.70;;;17.20;99.90;;;;;;5010594;28;20044;-94
2023/06/23 02:15:25;;;;;;;6.68;3.10;;;17.30;99.90;;;;;;5007445;28;20091;-95
2023/06/23 02:17:52;;;;;;;5.63;2.63;;;17.20;99.90;;;;;;5014794;28;20045;-94
2023/06/23 02:20:21;;;;;;;6.38;3.38;;;17.30;99.90;;;;;;5012279;28;20127;-95
2023/06/23 02:22:49;;;;;;;4.55;3.22;;;17.30;99.90;;;;;;5014313;28;20051;-94
2023/06/23 02:25:20;;;;;;;6.75;3.42;;;17.30;99.90;;;;;;4996212;28;20095;-95
2023/06/23 02:27:47;;;;;;;6.80;3.80;;;17.30;99.90;;;;;;5015401;28;20442;-96
2023/06/23 02:30:14;;;;;;;3.97;3.22;;;17.30;99.90;;;;;;5001468;28;20102;-94
2023/06/23 02:32:40;;;;;;;5.55;3.30;;;17.30;99.90;;;;;;5017326;28;20071;-94
2023/06/23 02:35:12;;;;;;;5.68;2.88;;;17.30;99.90;;;;;;5015781;28;20037;-95
2023/06/23 02:37:49;;;;;;;4.57;2.95;;;17.30;99.90;;;;;;5000031;28;20120;-94
2023/06/23 02:40:18;;;;;;;5.22;2.80;;;17.40;99.90;;;;;;5019355;28;20029;-94
2023/06/23 02:43:10;;;;;;;3.67;2.45;;;17.30;99.90;;;;;;5019851;28;20131;-94
2023/06/23 02:45:41;;;;;;;3.95;2.75;;;17.30;99.90;;;;;;5015950;28;20109;-94
2023/06/23 02:48:16;;;;;;;4.03;2.80;;;17.40;99.90;;;;;;5018093;28;20045;-94
2023/06/23 02:50:46;;;;;;;4.68;2.75;;;17.40;99.90;;;;;;5019361;28;20045;-95
2023/06/23 02:53:18;;;;;;;4.05;2.80;;;17.30;99.90;;;;;;5018592;28;20569;-95
2023/06/23 02:55:47;;;;;;;5.72;2.80;;;17.30;99.90;;;;;;5018694;28;20084;-94
2023/06/23 02:58:16;;;;;;;6.25;2.60;;;17.30;99.90;;;;;;5017624;28;20104;-95
2023/06/23 03:00:44;;;;;;;4.50;2.50;;;17.30;99.90;;;;;;5017753;28;20174;-94
2023/06/23 03:03:14;;;;;;;5.50;2.92;;;17.30;99.90;;;;;;5001904;28;20049;-95
2023/06/23 03:05:40;;;;;;;5.70;2.80;;;17.30;99.90;;;;;;5018364;28;20476;-94
2023/06/23 03:08:06;;;;;;;5.55;3.15;;;17.30;99.90;;;;;;5017469;28;20174;-95
2023/06/23 03:10:33;;;;;;;3.90;2.73;;;17.20;99.90;;;;;;5001326;28;20392;-95
2023/06/23 03:13:00;;;;;;;4.85;3.17;;;17.30;99.90;;;;;;5015683;28;20476;-94
2023/06/23 03:15:29;;;;;;;5.63;3.25;;;17.30;99.90;;;;;;5015991;28;20419;-94
2023/06/23 03:18:07;;;;;;;4.47;3.47;;;17.30;99.90;;;;;;5001969;28;20094;-94
2023/06/23 03:20:51;;;;;;;3.88;3.17;;;17.30;99.90;;;;;;5016211;28;20049;-95
2023/06/23 03:23:18;;;;;;;5.25;3.70;;;17.30;99.90;;;;;;5001700;28;20048;-94
2023/06/23 03:25:46;;;;;;;;;;;17.20;99.90;;;;;;5012044;28;20045;-95
2023/06/23 03:28:27;;;;;;;4.93;3.25;;;17.20;99.90;;;;;;5016938;28;19971;-96
2023/06/23 03:31:04;;;;;;;4.63;3.40;;;17.20;99.90;;;;;;5023526;28;20044;-95
2023/06/23 03:33:43;;;;;;;4.40;3.00;;;17.10;99.90;;;;;;5001725;28;20067;-96
2023/06/23 03:36:14;;;;;;;6.20;3.20;;;17.20;99.90;;;;;;5014342;28;20052;-95
2023/06/23 03:39:09;;;;;;;4.47;3.25;;;17.20;99.90;;;;;;5012432;28;20476;-94
2023/06/23 03:41:35;;;;;;;4.43;2.90;;;17.20;99.90;;;;;;5015165;28;20428;-95
2023/06/23 03:44:25;;;;;;;6.13;3.10;;;17.10;99.90;;;;;;5000545;28;20041;-95
2023/06/23 03:46:58;;;;;;;5.07;2.90;;;17.10;99.90;;;;;;5012872;28;20037;-96
2023/06/23 03:49:30;;;;;;;3.42;2.80;;;17.10;99.90;;;;;;5017995;28;20665;-95
2023/06/23 03:51:59;;;;;;;4.18;3.45;;;17.00;99.90;;;;;;5017770;28;20124;-95
2023/06/23 03:54:26;;;;;;;6.28;3.50;;;17.00;99.90;;;;;;5012349;28;20048;-95
2023/06/23 03:56:55;;;;;;;10.57;3.97;;;16.90;99.90;;;;;;5018130;28;20037;-95
2023/06/23 03:59:23;;;;;;;6.90;3.72;;;16.90;99.90;;;;;;5004483;28;20139;-94
2023/06/23 04:01:51;;;;;;;4.65;3.47;;;16.80;99.90;;;;;;5017598;28;20072;-94
2023/06/23 04:04:18;;;;;;;;;;;16.80;99.90;;;;;;5014531;28;20049;-95
2023/06/23 04:06:47;;;;;;;4.38;2.88;;;16.80;99.90;;;;;;5013012;28;19920;-95
2023/06/23 04:09:16;;;;;;;5.10;3.05;;;16.80;99.90;;;;;;5014890;28;20041;-94
2023/06/23 04:11:45;;;;;;;4.57;3.55;;;16.80;99.90;;;;;;5009816;28;20719;-94
2023/06/23 04:14:13;;;;;;;6.68;3.38;;;16.90;99.90;;;;;;5017119;28;20728;-95
2023/06/23 04:16:41;;;;;;;3.63;2.95;;;16.80;99.90;;;;;;5017396;28;20099;-95
2023/06/23 04:19:10;;;;;;;5.32;3.25;;;16.90;99.90;;;;;;5029544;28;20665;-96
2023/06/23 04:21:37;;;;;;;4.60;3.38;;;16.90;99.90;;;;;;5017437;28;20080;-95
2023/06/23 04:24:06;;;;;;;5.75;3.53;;;16.80;99.90;;;;;;5014117;28;20045;-96
2023/06/23 04:26:35;;;;;;;6.47;3.58;;;16.80;99.90;;;;;;5016757;28;20072;-94
2023/06/23 04:29:07;;;;;;;4.22;3.30;;;16.90;99.90;;;;;;5001809;28;20072;-95
2023/06/23 04:31:35;;;;;;;7.65;3.45;;;16.90;99.90;;;;;;5027636;28;20037;-95
2023/06/23 04:34:00;;;;;;;4.53;3.40;;;16.90;99.90;;;;;;4998456;28;20036;-96
2023/06/23 04:36:40;;;;;;;6.63;3.30;;;16.90;99.90;;;;;;4999489;28;20036;-93
2023/06/23 04:39:21;;;;;;;4.25;2.90;;;16.90;99.90;;;;;;5032918;28;20071;-94
2023/06/23 04:41:53;;;;;;;4.20;3.10;;;16.80;99.90;;;;;;5016337;28;20041;-95
2023/06/23 04:44:26;;;;;;;5.20;3.90;;;16.80;99.90;;;;;;5017067;28;20041;-96
2023/06/23 04:46:54;;;;;;;4.63;3.70;;;16.80;99.90;;;;;;5018890;28;20036;-95
2023/06/23 04:49:26;;;;;;;5.78;3.65;;;16.80;99.90;;;;;;5020626;28;20134;-96
2023/06/23 04:52:31;;;;;;;6.68;3.50;;;16.80;99.90;;;;;;5017743;28;20052;-95
2023/06/23 04:55:02;;;;;;;4.07;3.20;;;16.60;99.90;;;;;;4982235;28;20049;-94
2023/06/23 04:57:31;;;;;;;5.85;3.53;;;16.80;99.90;;;;;;4998950;28;20400;-95
2023/06/23 05:00:04;;;;;;;5.13;3.67;;;16.80;99.90;;;;;;4994777;28;20076;-96
2023/06/23 05:02:34;;;;;;;3.80;3.38;;;16.80;99.90;;;;;;4991541;28;20037;-95
2023/06/23 05:05:04;;;;;;;6.43;3.78;;;16.80;99.90;;;;;;4975714;28;20073;-96
2023/06/23 05:07:34;;;;;;;5.43;3.20;;;16.80;99.90;;;;;;4999286;28;20045;-95
2023/06/23 05:10:02;;;;;;;4.50;3.22;;;16.90;99.90;;;;;;5001011;28;20043;-96
2023/06/23 05:12:30;;;;;;;4.93;3.25;;;16.90;99.90;;;;;;4993794;28;20076;-95
2023/06/23 05:14:59;;;;;;;4.63;3.72;;;16.90;99.90;;;;;;4984690;28;20115;-96
2023/06/23 05:17:26;;;;;;;4.60;3.50;;;17.00;99.90;;;;;;4998773;28;20042;-96
2023/06/23 05:20:01;;;;;;;4.68;3.42;;;17.00;99.90;;;;;;5011331;28;20072;-94
2023/06/23 05:22:28;;;;;;;4.78;3.60;;;17.00;99.90;;;;;;4995833;28;20496;-95
2023/06/23 05:24:58;;;;;;;;;;;17.10;99.90;;;;;;4992682;28;21114;-96
2023/06/23 05:27:25;;;;;;;7.35;3.75;;;17.00;99.90;;;;;;4994776;28;20268;-96
2023/06/23 05:29:54;;;;;;;5.43;3.87;;;17.00;99.90;;;;;;4992852;28;20441;-95
2023/06/23 05:32:22;;;;;;;5.35;3.65;;;17.10;99.90;;;;;;5000406;28;20033;-96
2023/06/23 05:34:53;;;;;;;5.18;3.88;;;17.00;99.90;;;;;;4999672;28;20121;-95
2023/06/23 05:37:23;;;;;;;5.38;4.07;;;17.10;99.90;;;;;;4999304;28;20089;-96
2023/06/23 05:40:06;;;;;;;5.63;4.38;;;17.10;99.90;;;;;;4998029;28;20034;-96
2023/06/23 05:42:35;;;;;;;5.40;3.95;;;17.10;99.90;;;;;;4999511;28;20045;-95
2023/06/23 05:45:02;;;;;;;7.15;4.10;;;17.10;99.90;;;;;;4979746;28;20172;-95
2023/06/23 05:47:41;;;;;;;5.10;4.07;;;17.10;99.90;;;;;;4999214;28;20072;-96
2023/06/23 05:50:23;;;;;;;6.55;4.07;;;17.10;99.90;;;;;;5012610;28;20050;-96
2023/06/23 05:53:07;;;;;;;4.72;3.78;;;17.10;99.90;;;;;;5001206;28;20053;-94
2023/06/23 05:56:00;;;;;;;4.97;4.22;;;17.10;99.90;;;;;;5024748;28;20045;-94
2023/06/23 05:58:36;;;;;;;5.80;4.32;;;17.10;99.90;;;;;;4992271;28;20049;-95
2023/06/23 06:01:08;;;;;;;4.55;3.92;;;17.20;99.90;;;;;;5019428;28;20495;-95
2023/06/23 06:03:42;;;;;;;5.13;3.95;;;17.20;99.90;;;;;;5050536;28;20587;-96
2023/06/23 06:06:16;;;;;;;4.88;4.15;;;17.10;99.90;;;;;;5028071;28;20677;-96
2023/06/23 06:09:10;;;;;;;5.47;3.97;;;17.30;99.90;;;;;;5032839;28;20064;-96
2023/06/23 06:11:41;;;;;;;5.68;4.65;;;17.30;99.90;;;;;;5021809;28;20104;-96
2023/06/23 06:14:18;;;;;;;5.22;4.10;;;17.90;99.90;;;;;;5028768;28;20041;-96
2023/06/23 06:16:47;;;;;;;5.47;4.13;;;18.30;99.90;;;;;;5002668;28;20611;-91
2023/06/23 06:19:14;;;;;;;6.53;4.15;;;18.60;99.90;;;;;;5014838;28;20611;-91
2023/06/23 06:21:43;;;;;;;5.10;4.60;;;19.10;99.90;;;;;;5014836;28;20041;-90
2023/06/23 06:24:11;;;;;;;6.75;4.75;;;19.50;99.90;;;;;;4999271;28;20059;-92
2023/06/23 06:26:37;;;;;;;7.22;4.65;;;19.40;99.90;;;;;;5019901;28;20041;-91
2023/06/23 06:29:05;;;;;;;5.47;3.90;;;19.20;99.90;;;;;;4997155;28;20288;-91
2023/06/23 06:31:34;;;;;;;6.82;4.03;;;19.10;99.90;;;;;;5014721;28;20043;-91
2023/06/23 06:34:01;;;;;;;5.32;3.90;;;19.00;99.90;;;;;;5019516;28;20037;-93
2023/06/23 06:36:29;;;;;;;;;;;19.00;99.90;;;;;;5016859;28;20037;-94
2023/06/23 06:38:57;;;;;;;4.82;3.55;;;18.90;99.90;;;;;;5014936;28;20377;-92
2023/06/23 06:41:23;;;;;;;5.53;3.53;;;19.10;99.90;;;;;;5032566;28;20036;-92
2023/06/23 06:43:49;;;;;;;3.63;3.22;;;19.20;99.90;;;;;;5014335;28;20045;-92
2023/06/23 06:46:17;;;;;;;3.33;2.60;;;19.30;99.90;;;;;;5038485;28;20053;-93
2023/06/23 06:48:47;;;;;;;4.25;3.33;;;19.30;99.90;;;;;;5016797;28;20371;-93
2023/06/23 06:51:17;;;;;;;2.92;2.63;;;19.40;99.90;;;;;;5034825;28;20040;-93
2023/06/23 06:53:44;;;;;;;3.42;2.70;;;19.60;99.90;;;;;;5021065;28;20049;-91
2023/06/23 06:56:10;;;;;;;4.05;2.65;;;20.10;99.90;;;;;;5001454;28;20036;-96
2023/06/23 06:58:37;;;;;;;3.13;2.65;;;21.00;99.90;;;;;;5003262;28;20045;-96
2023/06/23 07:01:03;;;;;;;3.50;2.65;;;22.10;99.90;;;;;;4994698;28;20037;-96
2023/06/23 07:03:31;;;;;;;4.75;2.80;;;22.70;99.90;;;;;;5012768;28;20041;-95
2023/06/23 07:06:00;;;;;;;4.00;2.90;;;23.20;99.90;;;;;;5018206;28;20113;-96
2023/06/23 07:08:26;;;;;;;3.58;2.03;;;23.40;99.90;;;;;;5013046;28;20064;-96
2023/06/23 07:10:57;;;;;;;3.47;2.53;;;23.70;99.90;;;;;;5017054;28;20033;-96
2023/06/23 07:13:26;;;;;;;4.43;2.20;;;24.10;99.90;;;;;;4995670;28;20041;-96
2023/06/23 07:19:33;;;;;;;3.00;2.20;;;24.70;99.90;;;;;;4994806;28;20096;-96
2023/06/23 07:22:22;;;;;;;2.83;2.17;;;24.60;99.90;;;;;;5015338;28;20055;-96
2023/06/23 07:24:55;;;;;;;2.72;2.35;;;24.60;99.90;;;;;;5018141;28;20064;-96
2023/06/23 07:30:46;;;;;;;4.35;2.30;;;24.70;99.90;;;;;;5041218;28;20118;-96
2023/06/23 07:33:17;;;;;;;3.10;1.70;;;24.80;99.90;;;;;;5000917;28;20040;-96
2023/06/23 07:35:43;;;;;;;2.38;2.05;;;25.20;99.90;;;;;;4998932;28;20559;-95
2023/06/23 07:38:09;;;;;;;3.17;1.60;;;25.50;99.90;;;;;;4998211;28;20124;-96
2023/06/23 07:40:37;;;;;;;2.63;1.60;;;25.50;99.90;;;;;;5000080;28;20041;-95
2023/06/23 07:43:06;;;;;;;4.10;1.90;;;25.70;99.90;;;;;;4999357;28;20037;-96
2023/06/23 07:45:32;;;;;;;2.17;1.90;;;25.60;99.90;;;;;;5016646;28;20047;-96
2023/06/23 07:47:58;;;;;;;3.13;1.80;;;25.80;99.90;;;;;;5016393;28;20135;-96
2023/06/23 07:50:27;;;;;;;2.77;1.70;;;25.60;99.90;;;;;;4999533;28;20170;-96
2023/06/23 07:52:53;;;;;;;1.70;1.40;;;25.40;99.90;;;;;;5010679;28;20049;-95
2023/06/23 07:55:20;;;;;;;2.92;1.55;;;25.30;99.90;;;;;;5031484;28;20076;-96
2023/06/23 07:57:47;;;;;;;3.08;1.50;;;24.90;99.90;;;;;;5027560;28;20037;-96
2023/06/23 08:00:15;;;;;;;1.45;1.27;;;24.40;99.90;;;;;;5015964;28;20638;-96
2023/06/23 08:02:43;;;;;;;1.80;1.52;;;23.80;99.90;;;;;;5014764;28;20053;-95
2023/06/23 08:05:09;;;;;;;2.13;1.33;;;23.60;99.90;;;;;;4985827;28;20036;-95
2023/06/23 08:07:35;;;;;;;2.97;1.37;;;23.30;99.90;;;;;;5001019;28;20427;-95
2023/06/23 08:10:01;;;;;;;2.13;1.63;;;23.20;99.90;;;;;;5007131;28;20052;-95
2023/06/23 08:12:27;;;;;;;2.28;1.60;;;23.10;99.90;;;;;;4999617;28;20132;-96
2023/06/23 08:14:53;;;;;;;2.58;1.83;;;23.30;99.90;;;;;;4991196;28;20132;-96
2023/06/23 08:17:19;;;;;;;2.33;1.80;;;23.50;99.90;;;;;;5028918;28;20045;-96
2023/06/23 08:19:45;;;;;;;3.53;1.50;;;23.50;99.90;;;;;;4998359;28;20037;-96
2023/06/23 08:22:10;;;;;;;3.17;1.53;;;23.40;99.90;;;;;;5033987;28;20122;-96
2023/06/23 08:24:39;;;;;;;3.33;1.50;;;23.30;99.90;;;;;;4984589;28;20050;-96
2023/06/23 08:27:06;;;;;;;2.78;1.67;;;23.30;99.90;;;;;;5006208;28;20044;-96
2023/06/23 08:29:32;;;;;;;5.43;2.13;;;23.40;99.90;;;;;;5000610;28;20041;-95
2023/06/23 08:31:58;;;;;;;2.05;1.58;;;23.50;99.90;;;;;;5001727;28;20179;-95
2023/06/23 08:34:24;;;;;;;2.00;1.60;;;23.30;99.90;;;;;;5002897;28;20473;-96
2023/06/23 08:36:49;;;;;;;1.90;1.53;;;23.20;99.90;;;;;;5004383;28;20029;-96
2023/06/23 08:39:15;;;;;;;2.80;1.65;;;23.20;99.90;;;;;;4987657;28;20033;-96
2023/06/23 08:41:42;;;;;;;3.80;1.97;;;23.10;99.90;;;;;;4988324;28;20159;-96
2023/06/23 08:44:13;;;;;;;1.73;1.27;;;23.20;99.90;;;;;;5012830;28;20041;-95
2023/06/23 08:46:41;;;;;;;2.30;1.63;;;23.40;99.90;;;;;;5018335;28;20037;-96
2023/06/23 08:49:15;;;;;;;1.70;1.52;;;23.70;99.90;;;;;;5020570;28;20119;-96
2023/06/23 08:51:47;;;;;;;2.90;1.85;;;23.60;99.90;;;;;;5019712;28;20304;-96
2023/06/23 08:54:34;;;;;;;2.75;1.90;;;23.60;99.90;;;;;;5022842;28;20049;-96
2023/06/23 08:57:14;;;;;;;2.90;2.00;;;23.50;99.90;;;;;;5019153;28;20067;-96
2023/06/23 08:59:51;;;;;;;2.30;1.83;;;23.40;99.90;;;;;;5013882;28;20045;-96
2023/06/23 09:02:41;;;;;;;2.58;2.28;;;23.50;99.90;;;;;;5006772;28;20045;-96
2023/06/23 09:05:28;;;;;;;3.03;2.17;;;23.60;99.90;;;;;;5018334;28;20063;-96
2023/06/23 09:08:04;;;;;;;2.47;1.97;;;23.60;99.90;;;;;;5017281;28;20053;-96
2023/06/23 09:10:31;;;;;;;3.55;2.08;;;23.60;99.90;;;;;;5001466;28;20037;-96
2023/06/23 09:13:19;;;;;;;3.33;2.00;;;24.10;99.90;;;;;;5002365;28;20049;-96
2023/06/23 09:15:49;;;;;;;2.70;1.90;;;24.20;99.90;;;;;;5023457;28;20038;-96
2023/06/23 09:18:27;;;;;;;3.58;1.75;;;24.50;99.90;;;;;;5016732;28;20048;-96
2023/06/23 09:20:55;;;;;;;2.50;2.00;;;24.50;99.90;;;;;;5005058;28;20475;-96
2023/06/23 09:24:07;;;;;;;2.78;1.98;;;24.60;99.90;;;;;;5013630;28;20052;-96
2023/06/23 09:38:45;;;;;;;2.08;1.67;;;24.10;99.90;;;;;;4901766;29;20039;-96
2023/06/23 09:41:18;;;;;;;2.67;2.15;;;24.00;99.90;;;;;;4881711;29;20047;-95
2023/06/23 09:43:58;;;;;;;2.28;1.70;;;24.00;99.90;;;;;;4924514;28;20051;-96
2023/06/23 09:46:32;;;;;;;2.35;1.88;;;24.00;99.90;;;;;;4994624;28;20121;-95
2023/06/23 09:49:52;;;;;;;2.88;2.00;;;23.90;99.90;;;;;;4979771;28;20075;-94
2023/06/23 09:52:36;;;;;;;2.80;2.17;;;23.90;99.90;;;;;;5008094;28;20054;-90
2023/06/23 09:55:06;;;;;;;2.30;1.80;;;23.80;99.90;;;;;;4955900;28;20053;-90
2023/06/23 09:57:32;;;;;;;2.40;1.95;;;23.70;99.90;;;;;;4992392;28;20091;-91
2023/06/23 09:59:58;;;;;;;1.70;1.60;;;23.70;99.90;;;;;;5013878;28;20029;-91
2023/06/23 10:02:28;;;;;;;2.90;1.70;;;23.80;99.90;;;;;;4982626;28;20509;-89
2023/06/23 10:05:02;;;;;;;3.75;1.70;;;23.90;99.90;;;;;;5009621;28;20440;-89
2023/06/23 10:07:29;;;;;;;2.72;1.50;;;23.90;99.90;;;;;;5020588;28;20037;-90
2023/06/23 10:10:07;;;;;;;4.15;1.90;;;23.80;99.90;;;;;;4999016;28;20080;-89
2023/06/23 10:12:34;;;;;;;2.03;1.70;;;23.90;99.90;;;;;;5013645;28;20259;-91
2023/06/23 10:15:00;;;;;;;2.45;1.58;;;23.90;99.90;;;;;;5026552;28;20481;-89
2023/06/23 10:17:26;;;;;;;3.07;1.80;;;23.80;99.90;;;;;;5002270;28;20040;-92
2023/06/23 10:19:56;;;;;;;1.88;1.63;;;23.80;99.90;;;;;;4999866;28;20076;-91
2023/06/23 10:22:22;;;;;;;2.20;1.80;;;23.70;99.90;;;;;;5017831;28;20040;-91
2023/06/23 10:24:52;;;;;;;2.78;2.20;;;23.60;99.90;;;;;;5017256;28;20071;-93
2023/06/23 10:27:23;;;;;;;2.60;1.90;;;23.60;99.90;;;;;;5019606;28;20041;-91
2023/06/23 10:29:57;;;;;;;3.65;1.70;;;23.30;99.90;;;;;;5008924;28;20068;-90
2023/06/23 10:32:30;;;;;;;2.78;1.73;;;23.30;99.90;;;;;;4997309;28;20048;-92
2023/06/23 10:34:59;;;;;;;3.72;2.08;;;23.40;99.90;;;;;;4999507;28;20432;-91
2023/06/23 10:37:27;;;;;;;2.35;1.83;;;23.30;99.90;;;;;;5008273;28;20045;-90
2023/06/23 10:40:00;;;;;;;4.50;2.00;;;23.40;99.90;;;;;;5032092;28;20041;-91
2023/06/23 10:42:28;;;;;;;3.03;2.00;;;23.50;99.90;;;;;;5006598;28;20041;-91
2023/06/23 10:44:54;;;;;;;3.55;1.80;;;23.50;99.90;;;;;;5019122;28;20048;-90
2023/06/23 10:47:21;;;;;;;2.65;1.80;;;23.60;99.90;;;;;;5019771;28;20543;-91
2023/06/23 10:49:48;;;;;;;2.55;1.55;;;23.80;99.90;;;;;;5019449;28;20062;-93
2023/06/23 10:52:14;;;;;;;2.17;1.77;;;23.80;99.90;;;;;;4999986;28;20049;-92
2023/06/23 10:54:43;;;;;;;2.15;1.95;;;23.80;99.90;;;;;;5017810;28;20067;-93
2023/06/23 10:57:13;;;;;;;2.05;1.48;;;23.90;99.90;;;;;;5040734;28;20035;-92
2023/06/23 10:59:59;;;;;;;1.60;1.50;;;24.00;99.90;;;;;;5039855;28;20041;-91
2023/06/23 11:02:25;;;;;;;3.53;1.90;;;23.90;99.90;;;;;;5037572;28;20055;-92
2023/06/23 11:05:02;;;;;;;2.60;1.92;;;23.90;99.90;;;;;;5035310;28;20034;-92
2023/06/23 11:07:28;;;;;;;2.70;1.90;;;23.90;99.90;;;;;;5050975;28;20035;-90
2023/06/23 11:10:01;;;;;;;1.98;1.70;;;23.90;99.90;;;;;;5021222;28;20119;-91
2023/06/23 11:12:36;;;;;;;2.47;1.88;;;24.10;99.90;;;;;;5003527;28;20049;-89
2023/06/23 11:15:08;;;;;;;3.85;1.90;;;24.30;99.90;;;;;;5027668;28;20044;-91
2023/06/23 11:17:46;;;;;;;2.78;1.90;;;24.30;99.90;;;;;;5032225;28;20041;-93
2023/06/23 11:20:24;;;;;;;3.17;1.85;;;24.20;99.90;;;;;;5009373;28;20057;-92
2023/06/23 11:22:59;;;;;;;3.25;1.73;;;24.10;99.90;;;;;;5049618;28;20037;-88
2023/06/23 11:25:29;;;;;;;2.40;2.00;;;24.00;99.90;;;;;;5015935;28;20048;-90
2023/06/23 11:28:29;;;;;;;2.10;1.90;;;23.90;99.90;;;;;;5001050;28;20041;-91
2023/06/23 11:31:27;;;;;;;2.78;2.00;;;23.80;99.90;;;;;;5016997;28;20037;-89
2023/06/23 11:34:02;;;;;;;3.95;2.60;;;23.70;99.90;;;;;;4987477;28;20065;-91
2023/06/23 11:36:32;;;;;;;3.13;2.47;;;23.60;99.90;;;;;;5016129;28;20040;-91
2023/06/23 11:38:58;;;;;;;3.08;2.70;;;23.60;99.90;;;;;;4999929;28;20161;-92
2023/06/23 11:41:28;;;;;;;3.47;2.70;;;23.50;99.90;;;;;;5017592;28;20494;-88
2023/06/23 11:44:02;;;;;;;2.30;2.10;;;23.60;99.90;;;;;;5019976;28;20041;-89
2023/06/23 11:46:31;;;;;;;2.80;2.22;;;23.60;99.90;;;;;;5003179;28;20049;-90
2023/06/23 11:48:57;;;;;;;2.40;2.20;;;23.60;99.90;;;;;;5023885;28;20116;-90
2023/06/23 11:51:23;;;;;;;3.58;2.42;;;23.40;99.90;;;;;;5008243;28;20071;-92
2023/06/23 11:53:51;;;;;;;2.47;2.00;;;23.40;99.90;;;;;;4999989;28;20126;-91
2023/06/23 11:56:19;;;;;;;2.90;2.13;;;23.40;99.90;;;;;;5001957;28;20033;-92
2023/06/23 11:58:59;;;;;;;4.28;2.25;;;23.30;99.90;;;;;;5000626;28;20056;-90
2023/06/23 12:01:26;;;;;;;3.05;1.98;;;23.40;99.90;;;;;;5017936;28;20048;-91
2023/06/23 12:03:55;;;;;;;4.88;2.20;;;23.30;99.90;;;;;;5000248;28;20041;-93
2023/06/23 12:06:22;;;;;;;3.35;2.00;;;23.20;99.90;;;;;;4995764;28;20128;-89
2023/06/23 12:08:49;;;;;;;2.05;1.80;;;23.10;99.90;;;;;;5030903;28;20072;-91
2023/06/23 12:11:20;;;;;;;3.78;2.40;;;23.10;99.90;;;;;;4993670;28;20046;-90
2023/06/23 12:13:46;;;;;;;2.63;2.00;;;23.20;99.90;;;;;;4981405;28;20052;-90
2023/06/23 12:16:12;;;;;;;2.13;1.60;;;23.10;99.90;;;;;;5000116;28;20291;-89
2023/06/23 12:18:44;;;;;;;2.72;2.28;;;23.10;99.90;;;;;;4992376;28;20046;-91
2023/06/23 12:21:10;;;;;;;3.83;2.10;;;23.10;99.90;;;;;;5016204;28;20030;-90
2023/06/23 12:23:37;;;;;;;3.10;2.03;;;23.00;99.90;;;;;;5020302;28;20060;-90
2023/06/23 12:26:06;;;;;;;;;;;23.00;99.90;;;;;;5036268;28;20036;-91
2023/06/23 12:28:36;;;;;;;1.92;1.30;;;23.00;99.90;;;;;;5015990;28;19952;-90
2023/06/23 12:31:07;;;;;;;3.20;1.80;;;22.90;99.90;;;;;;5014675;28;20064;-90
2023/06/23 12:33:40;;;;;;;2.30;1.63;;;22.90;99.90;;;;;;5005623;28;20064;-89
2023/06/23 12:36:07;;;;;;;2.00;1.40;;;23.00;99.90;;;;;;4999238;28;20037;-88
2023/06/23 12:38:36;;;;;;;3.35;1.50;;;22.90;99.90;;;;;;4971348;28;20033;-90
2023/06/23 12:41:22;;;;;;;2.55;1.70;;;22.90;99.90;;;;;;4994962;28;20054;-89
2023/06/23 12:43:48;;;;;;;1.80;1.35;;;22.80;98.80;;;;;;4999110;28;20038;-87
2023/06/23 12:46:18;;;;;;;2.65;1.75;;;22.80;99.90;;;;;;4979413;28;20464;-88
2023/06/23 12:48:47;;;;;;;2.60;1.33;;;22.80;99.90;;;;;;4981594;28;20048;-87
2023/06/23 12:51:13;;;;;;;3.15;1.77;;;22.90;99.90;;;;;;5011174;28;20038;-87
2023/06/23 12:53:42;;;;;;;2.77;1.53;;;22.90;99.90;;;;;;5011534;28;20061;-89
2023/06/23 12:56:08;;;;;;;3.08;1.38;;;22.90;99.90;;;;;;4996734;28;20405;-90
2023/06/23 12:58:34;;;;;;;3.17;1.60;;;22.80;99.90;;;;;;4998665;28;20041;-90
2023/06/23 13:01:06;;;;;;;3.88;1.83;;;22.80;99.90;;;;;;5010631;28;20493;-88
2023/06/23 13:03:31;;;;;;;1.58;1.05;;;22.80;99.90;;;;;;4993251;28;20045;-90
2023/06/23 13:05:58;;;;;;;1.80;1.23;;;22.80;99.90;;;;;;5005200;28;20623;-90
2023/06/23 13:08:23;;;;;;;1.58;1.27;;;22.80;99.90;;;;;;4999434;28;20045;-88
2023/06/23 13:10:49;;;;;;;1.88;1.25;;;22.80;99.90;;;;;;4962775;28;20564;-89
2023/06/23 13:13:15;;;;;;;1.92;1.00;;;22.70;99.90;;;;;;4980533;28;20069;-87
2023/06/23 13:15:42;;;;;;;1.58;1.13;;;22.80;99.90;;;;;;4998791;28;20648;-90
2023/06/23 13:18:08;;;;;;;;;;;22.70;95.90;;;;;;5001731;28;20764;-91
2023/06/23 13:20:34;;;;;;;3.47;1.27;;;22.60;95.70;;;;;;5017109;28;19960;-91
2023/06/23 13:22:59;;;;;;;1.92;1.20;;;22.60;95.50;;;;;;4985308;28;20041;-91
2023/06/23 13:25:25;;;;;;;3.28;1.17;;;22.50;94.40;;;;;;5015712;28;20088;-89
2023/06/23 13:27:51;;;;;;;1.98;0.90;;;22.50;95.10;;;;;;4999315;28;20042;-89